createdAt,value
2023-12-09T00:02:11.170Z,65.90
2023-12-09T00:04:42.258Z,63.80
2023-12-09T00:07:10.930Z,65.70
2023-12-09T00:09:39.229Z,63.00
2023-12-09T00:12:07.704Z,66.70
2023-12-09T00:14:37.303Z,61.50
2023-12-09T00:17:05.790Z,63.10
2023-12-09T00:19:34.081Z,61.10
2023-12-09T00:22:02.437Z,61.60
2023-12-09T00:24:31.495Z,61.00
2023-12-09T00:26:59.741Z,60.50
2023-12-09T00:29:28.243Z,63.20
2023-12-09T00:31:58.027Z,62.40
2023-12-09T00:34:26.395Z,61.50
2023-12-09T00:36:54.802Z,66.00
2023-12-09T00:39:23.383Z,65.60
2023-12-09T00:41:52.202Z,63.50
2023-12-09T00:44:23.504Z,62.70
2023-12-09T00:46:51.728Z,62.60
2023-12-09T00:49:23.349Z,63.80
2023-12-09T00:51:51.820Z,64.70
2023-12-09T00:54:20.131Z,61.70
2023-12-09T00:56:48.390Z,66.10
2023-12-09T00:59:16.561Z,70.50
2023-12-09T01:01:44.837Z,73.00
2023-12-09T01:04:13.166Z,66.50
2023-12-09T01:06:42.957Z,60.90
2023-12-09T01:09:11.269Z,62.00
2023-12-09T01:11:39.673Z,64.90
2023-12-09T01:14:10.287Z,67.20
2023-12-09T01:16:38.638Z,66.80
2023-12-09T01:19:06.944Z,64.90
2023-12-09T01:21:35.306Z,65.90
2023-12-09T01:24:06.008Z,65.90
2023-12-09T01:26:34.321Z,65.70
2023-12-09T01:29:04.512Z,64.60
2023-12-09T01:31:33.116Z,63.70
2023-12-09T01:34:01.721Z,65.20
2023-12-09T01:36:30.107Z,66.20
2023-12-09T01:38:58.464Z,66.40
2023-12-09T01:41:29.980Z,67.90
2023-12-09T01:43:58.281Z,68.60
2023-12-09T01:46:26.635Z,69.20
2023-12-09T01:48:54.983Z,68.10
2023-12-09T01:51:23.296Z,69.20
2023-12-09T01:53:52.485Z,70.60
2023-12-09T01:56:23.743Z,70.20
2023-12-09T01:58:53.946Z,70.10
2023-12-09T02:01:22.234Z,71.40
2023-12-09T02:03:52.582Z,71.20
2023-12-09T02:06:21.244Z,70.80
2023-12-09T02:08:49.750Z,69.60
2023-12-09T02:11:30.308Z,68.50
2023-12-09T02:14:08.531Z,69.20
2023-12-09T02:16:43.622Z,70.00
2023-12-09T02:19:14.663Z,69.20
2023-12-09T02:21:59.224Z,69.50
2023-12-09T02:24:29.204Z,67.10
2023-12-09T02:27:04.966Z,69.80
2023-12-09T02:29:37.217Z,69.90
2023-12-09T02:35:48.827Z,68.10
2023-12-09T02:38:19.490Z,68.60
2023-12-09T02:40:49.880Z,68.10
2023-12-09T02:43:19.552Z,68.80
2023-12-09T02:45:48.124Z,67.50
2023-12-09T02:48:16.517Z,66.40
2023-12-09T02:50:44.839Z,69.80
2023-12-09T02:53:13.069Z,68.50
2023-12-09T02:55:41.227Z,66.20
2023-12-09T02:58:10.934Z,67.10
2023-12-09T03:00:39.198Z,68.50
2023-12-09T03:03:06.494Z,65.90
2023-12-09T03:05:34.802Z,65.60
2023-12-09T03:08:02.961Z,65.20
2023-12-09T03:10:31.143Z,64.90
2023-12-09T03:13:00.163Z,64.80
2023-12-09T03:15:29.952Z,63.60
2023-12-09T03:17:58.274Z,64.20
2023-12-09T03:20:26.762Z,62.70
2023-12-09T03:22:54.866Z,61.40
2023-12-09T03:25:23.057Z,61.10
2023-12-09T03:27:51.372Z,60.20
2023-12-09T03:30:19.766Z,60.10
2023-12-09T03:32:49.501Z,63.00
2023-12-09T03:35:17.679Z,62.70
2023-12-09T03:37:45.834Z,63.40
2023-12-09T03:40:14.823Z,64.10
2023-12-09T03:42:43.320Z,63.20
2023-12-09T03:45:11.852Z,62.20
2023-12-09T03:47:40.142Z,61.90
2023-12-09T03:50:10.804Z,62.90
2023-12-09T03:52:39.224Z,61.10
2023-12-09T03:55:07.834Z,61.90
2023-12-09T03:57:36.107Z,61.10
2023-12-09T04:00:05.899Z,61.30
2023-12-09T04:02:34.354Z,61.40
2023-12-09T04:05:02.561Z,59.40
2023-12-09T04:07:33.255Z,61.90
2023-12-09T04:10:01.398Z,61.30
2023-12-09T04:12:29.959Z,63.20
2023-12-09T04:14:58.584Z,64.00
2023-12-09T04:17:26.785Z,61.50
2023-12-09T04:19:55.174Z,60.10
2023-12-09T04:22:24.117Z,59.60
2023-12-09T04:24:53.841Z,58.60
2023-12-09T04:27:22.158Z,59.00
2023-12-09T04:29:50.296Z,60.10
2023-12-09T04:32:18.469Z,62.40
2023-12-09T04:34:46.877Z,64.50
2023-12-09T04:37:15.062Z,64.10
2023-12-09T04:39:43.237Z,62.60
2023-12-09T04:42:12.920Z,58.40
2023-12-09T04:44:41.054Z,60.90
2023-12-09T04:47:09.378Z,61.90
2023-12-09T04:49:37.671Z,63.70
2023-12-09T04:52:06.523Z,65.20
2023-12-09T04:54:34.781Z,61.90
2023-12-09T04:57:03.320Z,60.80
2023-12-09T04:59:32.985Z,61.20
2023-12-09T05:02:01.156Z,61.40
2023-12-09T05:04:29.593Z,61.80
2023-12-09T05:06:57.951Z,59.00
2023-12-09T05:09:26.182Z,60.70
2023-12-09T05:11:54.547Z,58.70
2023-12-09T05:14:22.829Z,60.20
2023-12-09T05:16:52.424Z,57.00
2023-12-09T05:19:23.355Z,57.20
2023-12-09T05:21:51.689Z,57.00
2023-12-09T05:24:20.025Z,58.80
2023-12-09T05:26:48.546Z,62.00
2023-12-09T05:29:16.726Z,62.80
2023-12-09T05:31:44.902Z,60.00
2023-12-09T05:34:14.613Z,60.00
2023-12-09T05:36:42.991Z,61.30
2023-12-09T05:39:11.405Z,61.90
2023-12-09T05:41:44.180Z,58.90
2023-12-09T05:44:12.436Z,58.70
2023-12-09T05:46:41.455Z,60.80
2023-12-09T05:49:09.820Z,59.60
2023-12-09T05:51:39.507Z,59.70
2023-12-09T05:54:07.621Z,60.40
2023-12-09T05:56:35.717Z,59.90
2023-12-09T05:59:03.884Z,59.30
2023-12-09T06:01:32.095Z,59.90
2023-12-09T06:04:00.326Z,60.90
2023-12-09T06:06:28.986Z,61.90
2023-12-09T06:08:58.641Z,59.60
2023-12-09T06:11:26.982Z,61.90
2023-12-09T06:13:55.092Z,60.70
2023-12-09T06:16:23.237Z,60.00
2023-12-09T06:18:51.676Z,60.50
2023-12-09T06:21:23.766Z,59.50
2023-12-09T06:23:53.066Z,58.90
2023-12-09T06:26:22.809Z,58.20
2023-12-09T06:28:50.999Z,58.90
2023-12-09T06:31:19.335Z,59.50
2023-12-09T06:33:47.649Z,60.00
2023-12-09T06:36:16.097Z,56.00
2023-12-09T06:38:44.218Z,55.50
2023-12-09T06:41:12.313Z,53.90
2023-12-09T06:43:42.666Z,53.50
2023-12-09T06:46:10.812Z,55.00
2023-12-09T06:48:39.825Z,55.20
2023-12-09T06:51:15.339Z,55.40
2023-12-09T06:53:43.609Z,54.00
2023-12-09T06:56:21.063Z,55.50
2023-12-09T06:58:50.966Z,53.60
2023-12-09T07:01:23.094Z,53.20
2023-12-09T07:03:51.961Z,55.40
2023-12-09T07:06:23.880Z,55.50
2023-12-09T07:08:52.184Z,56.30
2023-12-09T07:11:20.807Z,58.30
2023-12-09T07:13:51.126Z,60.00
2023-12-09T07:16:19.778Z,59.90
2023-12-09T07:18:49.229Z,61.60
2023-12-09T07:21:18.457Z,59.10
2023-12-09T07:23:46.704Z,60.80
2023-12-09T07:26:14.856Z,59.80
2023-12-09T07:28:43.009Z,60.00
2023-12-09T07:31:12.671Z,59.40
2023-12-09T07:33:40.929Z,58.10
2023-12-09T07:36:09.989Z,57.90
2023-12-09T07:38:38.247Z,56.80
2023-12-09T07:41:06.671Z,57.00
2023-12-09T07:43:36.184Z,56.00
2023-12-09T07:46:06.240Z,55.70
2023-12-09T07:48:35.943Z,55.00
2023-12-09T07:51:04.232Z,53.70
2023-12-09T07:53:32.422Z,52.90
2023-12-09T07:56:01.121Z,53.00
2023-12-09T07:58:29.250Z,52.70
2023-12-09T08:00:59.973Z,54.30
2023-12-09T08:03:28.571Z,53.50
2023-12-09T08:05:58.313Z,54.40
2023-12-09T08:08:26.608Z,55.50
2023-12-09T08:10:57.290Z,55.20
2023-12-09T08:13:25.687Z,53.10
2023-12-09T08:15:53.976Z,55.40
2023-12-09T08:18:22.555Z,54.40
2023-12-09T08:21:03.588Z,54.20
2023-12-09T08:23:33.499Z,52.70
2023-12-09T08:26:05.240Z,52.30
2023-12-09T08:28:37.811Z,53.20
2023-12-09T08:31:08.348Z,55.70
2023-12-09T08:33:39.100Z,58.10
2023-12-09T08:36:09.002Z,60.00
2023-12-09T08:38:39.068Z,60.00
2023-12-09T08:41:07.904Z,59.50
2023-12-09T08:43:37.507Z,58.60
2023-12-09T08:46:06.495Z,57.50
2023-12-09T08:48:35.014Z,57.20
2023-12-09T08:51:03.558Z,50.60
2023-12-09T08:53:34.502Z,50.80
2023-12-09T08:56:08.506Z,49.90
2023-12-09T08:58:37.085Z,53.10
2023-12-09T09:01:06.101Z,54.70
2023-12-09T09:03:35.090Z,54.60
2023-12-09T09:06:06.064Z,54.60
2023-12-09T09:08:34.937Z,52.60
2023-12-09T09:11:03.575Z,53.50
2023-12-09T09:13:33.835Z,56.50
2023-12-09T09:16:02.427Z,49.30
2023-12-09T09:18:37.548Z,47.50
2023-12-09T09:21:07.823Z,47.20
2023-12-09T09:23:36.792Z,54.50
2023-12-09T09:26:06.791Z,48.00
2023-12-09T09:28:36.463Z,47.70
2023-12-09T09:31:05.174Z,49.50
2023-12-09T09:33:34.038Z,53.00
2023-12-09T09:36:02.785Z,51.00
2023-12-09T09:38:31.274Z,53.90
2023-12-09T09:40:59.820Z,45.10
2023-12-09T09:43:36.285Z,45.80
2023-12-09T09:46:15.717Z,41.40
2023-12-09T09:48:48.455Z,44.50
2023-12-09T09:51:24.861Z,42.30
2023-12-09T09:54:07.692Z,40.00
2023-12-09T09:56:37.163Z,38.80
2023-12-09T09:59:05.871Z,37.10
2023-12-09T10:01:37.147Z,38.50
2023-12-09T10:04:05.961Z,38.20
2023-12-09T10:06:36.602Z,39.40
2023-12-09T10:09:07.148Z,39.00
2023-12-09T10:11:35.272Z,36.20
2023-12-09T10:14:03.502Z,37.50
2023-12-09T10:16:31.840Z,36.80
2023-12-09T10:19:02.459Z,37.00
2023-12-09T10:21:31.005Z,38.30
2023-12-09T10:23:59.629Z,42.80
2023-12-09T10:26:27.826Z,45.40
2023-12-09T10:28:56.366Z,46.30
2023-12-09T10:31:25.049Z,47.10
2023-12-09T10:33:53.546Z,49.20
2023-12-09T10:36:24.673Z,52.40
2023-12-09T10:38:54.908Z,50.10
2023-12-09T10:41:24.426Z,51.80
2023-12-09T10:43:52.723Z,43.40
2023-12-09T10:46:20.917Z,43.30
2023-12-09T10:48:49.136Z,40.20
2023-12-09T10:51:17.469Z,42.30
2023-12-09T10:53:47.377Z,39.70
2023-12-09T10:56:15.680Z,41.20
2023-12-09T10:58:46.415Z,40.10
2023-12-09T11:01:16.745Z,40.80
2023-12-09T11:03:45.011Z,40.20
2023-12-09T11:06:14.473Z,39.70
2023-12-09T11:08:43.148Z,39.50
2023-12-09T11:11:14.514Z,41.40
2023-12-09T11:13:48.406Z,41.90
2023-12-09T11:16:20.333Z,40.40
2023-12-09T11:18:54.987Z,38.90
2023-12-09T11:21:24.769Z,37.60
2023-12-09T11:23:54.320Z,37.90
2023-12-09T11:26:30.257Z,39.50
2023-12-09T11:29:07.954Z,37.60
2023-12-09T11:31:38.516Z,39.90
2023-12-09T11:34:08.488Z,37.10
2023-12-09T11:36:39.812Z,40.30
2023-12-09T11:39:11.240Z,37.80
2023-12-09T11:41:42.832Z,40.50
2023-12-09T11:44:11.615Z,41.50
2023-12-09T11:46:40.917Z,44.00
2023-12-09T11:49:10.563Z,44.90
2023-12-09T11:51:40.795Z,43.10
2023-12-09T11:54:12.125Z,41.70
2023-12-09T11:56:42.620Z,43.70
2023-12-09T11:59:18.257Z,41.20
2023-12-09T12:01:48.781Z,40.00
2023-12-09T12:04:17.186Z,38.20
2023-12-09T12:06:47.004Z,37.00
2023-12-09T12:09:16.657Z,38.60
2023-12-09T12:11:46.558Z,35.00
2023-12-09T12:14:16.717Z,35.10
2023-12-09T12:16:45.216Z,37.30
2023-12-09T12:19:13.793Z,40.10
2023-12-09T12:21:42.430Z,37.00
2023-12-09T12:24:11.753Z,38.30
2023-12-09T12:26:40.205Z,34.40
2023-12-09T12:29:11.983Z,34.50
2023-12-09T12:31:40.307Z,35.80
2023-12-09T12:34:19.246Z,36.90
2023-12-09T12:36:49.669Z,32.80
2023-12-09T12:39:18.447Z,33.80
2023-12-09T12:41:47.367Z,36.70
2023-12-09T12:44:17.186Z,36.80
2023-12-09T12:46:46.217Z,33.20
2023-12-09T12:49:15.055Z,35.30
2023-12-09T12:51:43.645Z,37.50
2023-12-09T12:54:12.476Z,34.60
2023-12-09T12:56:40.790Z,35.10
2023-12-09T12:59:09.448Z,35.60
2023-12-09T13:01:39.441Z,38.60
2023-12-09T13:04:07.931Z,33.50
2023-12-09T13:06:36.590Z,34.10
2023-12-09T13:09:05.679Z,36.10
2023-12-09T13:11:34.313Z,32.60
2023-12-09T13:14:02.852Z,31.90
2023-12-09T13:16:50.114Z,34.20
2023-12-09T13:19:25.622Z,33.00
2023-12-09T13:21:54.125Z,34.40
2023-12-09T13:24:22.668Z,32.60
2023-12-09T13:26:51.143Z,33.10
2023-12-09T13:29:19.614Z,32.30
2023-12-09T13:31:48.079Z,35.50
2023-12-09T13:34:16.711Z,32.20
2023-12-09T13:36:46.954Z,36.00
2023-12-09T13:39:16.899Z,34.00
2023-12-09T13:41:45.660Z,31.10
2023-12-09T13:44:14.721Z,33.90
2023-12-09T13:46:43.190Z,31.10
2023-12-09T13:49:11.831Z,30.90
2023-12-09T13:51:41.285Z,35.30
2023-12-09T13:54:11.580Z,36.80
2023-12-09T13:56:40.859Z,45.00
2023-12-09T13:59:09.445Z,45.20
2023-12-09T14:01:38.091Z,36.70
2023-12-09T14:04:07.128Z,35.80
2023-12-09T14:06:35.754Z,30.30
2023-12-09T14:09:04.315Z,35.00
2023-12-09T14:11:34.208Z,34.30
2023-12-09T14:14:02.641Z,33.40
2023-12-09T14:16:33.205Z,33.10
2023-12-09T14:19:01.632Z,34.00
2023-12-09T14:21:30.097Z,33.30
2023-12-09T14:23:58.405Z,36.90
2023-12-09T14:26:29.401Z,33.00
2023-12-09T14:28:59.043Z,32.30
2023-12-09T14:31:27.258Z,33.00
2023-12-09T14:33:55.953Z,33.40
2023-12-09T14:36:24.624Z,33.40
2023-12-09T14:38:53.620Z,33.80
2023-12-09T14:41:21.859Z,35.00
2023-12-09T14:43:55.845Z,33.70
2023-12-09T14:46:29.024Z,33.10
2023-12-09T14:48:57.373Z,35.00
2023-12-09T14:51:37.349Z,35.00
2023-12-09T14:54:11.632Z,36.00
2023-12-09T14:56:39.806Z,36.50
2023-12-09T14:59:08.121Z,36.00
2023-12-09T15:01:37.757Z,37.70
2023-12-09T15:04:06.258Z,40.40
2023-12-09T15:06:34.701Z,36.80
2023-12-09T15:09:03.346Z,37.60
2023-12-09T15:11:31.575Z,39.40
2023-12-09T15:13:59.739Z,39.00
2023-12-09T15:16:29.871Z,41.30
2023-12-09T15:18:59.689Z,39.30
2023-12-09T15:21:27.983Z,38.50
2023-12-09T15:23:56.182Z,38.00
2023-12-09T15:26:24.727Z,38.50
2023-12-09T15:28:54.581Z,39.90
2023-12-09T15:31:22.851Z,37.90
2023-12-09T15:33:52.966Z,38.40
2023-12-09T15:36:22.917Z,39.40
2023-12-09T15:38:51.864Z,40.60
2023-12-09T15:41:20.063Z,42.40
2023-12-09T15:43:48.257Z,41.60
2023-12-09T15:46:16.644Z,43.10
2023-12-09T15:48:46.496Z,45.00
2023-12-09T15:51:14.883Z,47.10
2023-12-09T15:53:44.488Z,48.90
2023-12-09T15:56:13.084Z,49.20
2023-12-09T15:58:41.372Z,50.50
2023-12-09T16:01:09.668Z,52.00
2023-12-09T16:03:38.428Z,51.80
2023-12-09T16:06:07.789Z,53.10
2023-12-09T16:08:36.514Z,54.20
2023-12-09T16:11:06.668Z,54.50
2023-12-09T16:13:35.036Z,56.40
2023-12-09T16:16:03.310Z,56.90
2023-12-09T16:18:31.812Z,58.00
2023-12-09T16:21:02.049Z,57.10
2023-12-09T16:23:31.530Z,56.30
2023-12-09T16:26:01.147Z,56.70
2023-12-09T16:28:30.972Z,56.30
2023-12-09T16:30:59.211Z,56.40
2023-12-09T16:33:27.500Z,56.30
2023-12-09T16:35:55.783Z,56.10
2023-12-09T16:38:23.974Z,57.10
2023-12-09T16:40:52.505Z,57.70
2023-12-09T16:43:20.910Z,57.20
2023-12-09T16:45:50.610Z,57.20
2023-12-09T16:48:21.104Z,58.50
2023-12-09T16:50:49.473Z,59.10
2023-12-09T16:53:19.460Z,57.60
2023-12-09T16:55:47.855Z,56.80
2023-12-09T16:58:17.684Z,57.80
2023-12-09T17:00:46.246Z,57.70
2023-12-09T17:03:15.992Z,60.00
2023-12-09T17:05:44.404Z,60.80
2023-12-09T17:08:13.010Z,61.60
2023-12-09T17:10:41.884Z,61.10
2023-12-09T17:13:10.225Z,61.20
2023-12-09T17:15:38.693Z,63.00
2023-12-09T17:18:07.674Z,63.80
2023-12-09T17:20:37.335Z,65.00
2023-12-09T17:23:05.767Z,66.70
2023-12-09T17:25:33.997Z,67.90
2023-12-09T17:28:02.315Z,66.10
2023-12-09T17:30:30.565Z,67.10
2023-12-09T17:32:58.928Z,69.80
2023-12-09T17:35:30.153Z,67.70
2023-12-09T17:37:59.922Z,67.10
2023-12-09T17:40:28.151Z,67.60
2023-12-09T17:42:56.487Z,68.10
2023-12-09T17:45:24.756Z,68.90
2023-12-09T17:47:53.164Z,69.00
2023-12-09T17:50:22.649Z,68.70
2023-12-09T17:52:51.052Z,69.30
2023-12-09T17:55:20.674Z,69.20
2023-12-09T17:57:48.911Z,68.20
2023-12-09T18:00:17.460Z,69.50
2023-12-09T18:02:45.677Z,70.50
2023-12-09T18:05:14.092Z,68.30
2023-12-09T18:07:42.703Z,68.70
2023-12-09T18:10:11.104Z,70.40
2023-12-09T18:12:40.715Z,69.70
2023-12-09T18:15:09.484Z,69.30
2023-12-09T18:17:37.843Z,69.80
2023-12-09T18:20:07.412Z,71.30
2023-12-09T18:22:35.614Z,71.40
2023-12-09T18:25:04.002Z,69.00
2023-12-09T18:27:32.727Z,69.80
2023-12-09T18:30:02.410Z,70.90
2023-12-09T18:32:34.464Z,72.60
2023-12-09T18:35:09.123Z,74.80
2023-12-09T18:37:37.980Z,75.80
2023-12-09T18:40:07.516Z,78.60
2023-12-09T18:42:35.906Z,78.60
2023-12-09T18:45:07.005Z,80.80
2023-12-09T18:47:37.004Z,82.00
2023-12-09T18:50:05.726Z,83.60
2023-12-09T18:52:33.966Z,84.10
2023-12-09T18:55:02.194Z,85.80
2023-12-09T18:57:31.052Z,86.40
2023-12-09T19:00:02.368Z,86.50
2023-12-09T19:02:33.332Z,87.40
2023-12-09T19:05:02.030Z,88.30
2023-12-09T19:07:30.369Z,88.60
2023-12-09T19:09:58.923Z,87.90
2023-12-09T19:12:27.909Z,87.40
2023-12-09T19:14:56.370Z,89.20
2023-12-09T19:17:24.888Z,89.80
2023-12-09T19:19:55.264Z,90.30
2023-12-09T19:22:23.630Z,90.10
2023-12-09T19:24:51.961Z,90.30
2023-12-09T19:27:20.320Z,90.60
2023-12-09T19:29:48.562Z,90.90
2023-12-09T19:32:17.044Z,91.00
2023-12-09T19:34:45.344Z,91.30
2023-12-09T19:37:15.135Z,90.60
2023-12-09T19:39:43.415Z,90.50
2023-12-09T19:42:11.940Z,90.60
2023-12-09T19:44:40.235Z,90.40
2023-12-09T19:47:08.464Z,90.20
2023-12-09T19:49:37.375Z,90.20
2023-12-09T19:52:06.847Z,90.20
2023-12-09T19:54:36.581Z,90.00
2023-12-09T19:57:05.162Z,89.30
2023-12-09T19:59:33.766Z,89.90
2023-12-09T20:02:02.119Z,90.50
2023-12-09T20:04:30.453Z,90.90
2023-12-09T20:06:58.750Z,90.70
2023-12-09T20:09:26.994Z,90.80
2023-12-09T20:11:56.571Z,91.10
2023-12-09T20:14:24.717Z,91.20
2023-12-09T20:16:52.897Z,91.10
2023-12-09T20:19:23.618Z,91.40
2023-12-09T20:21:53.632Z,91.10
2023-12-09T20:24:21.914Z,91.50
2023-12-09T20:26:50.123Z,91.50
2023-12-09T20:29:19.678Z,91.90
2023-12-09T20:31:47.903Z,91.30
2023-12-09T20:34:16.303Z,91.90
2023-12-09T20:36:44.823Z,92.20
2023-12-09T20:39:13.224Z,92.30
2023-12-09T20:41:41.404Z,92.20
2023-12-09T20:44:09.590Z,92.60
2023-12-09T20:46:42.200Z,92.70
2023-12-09T20:49:11.310Z,92.70
2023-12-09T20:51:39.625Z,92.90
2023-12-09T20:54:07.911Z,93.10
2023-12-09T20:56:36.133Z,93.40
2023-12-09T20:59:05.372Z,93.60
2023-12-09T21:01:33.635Z,93.60
2023-12-09T21:04:03.926Z,93.30
2023-12-09T21:06:32.266Z,93.10
2023-12-09T21:09:00.860Z,93.00
2023-12-09T21:11:30.353Z,92.80
2023-12-09T21:13:59.587Z,92.90
2023-12-09T21:16:27.806Z,92.30
2023-12-09T21:18:56.309Z,92.50
2023-12-09T21:21:26.030Z,92.80
2023-12-09T21:23:54.227Z,92.90
2023-12-09T21:26:22.527Z,93.00
2023-12-09T21:28:50.796Z,92.70
2023-12-09T21:31:19.240Z,92.30
2023-12-09T21:33:47.592Z,92.10
2023-12-09T21:36:16.785Z,92.40
2023-12-09T21:38:47.099Z,92.50
2023-12-09T21:41:20.622Z,92.40
2023-12-09T21:43:50.058Z,92.90
2023-12-09T21:46:22.768Z,92.90
2023-12-09T21:48:51.773Z,93.10
2023-12-09T21:51:21.660Z,93.00
2023-12-09T21:53:51.420Z,92.90
2023-12-09T21:56:23.422Z,93.00
2023-12-09T21:58:52.294Z,92.70
2023-12-09T22:01:21.792Z,93.00
2023-12-09T22:03:50.421Z,93.40
2023-12-09T22:06:20.609Z,93.10
2023-12-09T22:08:50.355Z,93.10
2023-12-09T22:11:19.177Z,93.30
2023-12-09T22:13:47.343Z,93.50
2023-12-09T22:16:20.764Z,93.20
2023-12-09T22:18:49.612Z,93.20
2023-12-09T22:21:18.060Z,92.80
2023-12-09T22:23:46.255Z,92.60
2023-12-09T22:26:15.878Z,93.00
2023-12-09T22:28:44.750Z,92.70
2023-12-09T22:31:13.503Z,92.30
2023-12-09T22:33:42.203Z,92.50
2023-12-09T22:36:11.800Z,92.80
2023-12-09T22:38:39.996Z,92.60
2023-12-09T22:41:08.457Z,92.60
2023-12-09T22:43:38.135Z,92.70
2023-12-09T22:46:06.819Z,92.60
2023-12-09T22:48:35.097Z,91.50
2023-12-09T22:51:03.401Z,91.50
2023-12-09T22:53:31.672Z,91.90
2023-12-09T22:56:12.530Z,92.10
2023-12-09T22:58:43.653Z,91.40
2023-12-09T23:01:12.363Z,90.80
2023-12-09T23:03:40.637Z,88.60
2023-12-09T23:06:09.725Z,87.70
2023-12-09T23:08:40.322Z,84.60
2023-12-09T23:11:09.058Z,82.20
2023-12-09T23:13:37.532Z,77.30
2023-12-09T23:16:09.212Z,72.50
2023-12-09T23:18:37.511Z,75.70
2023-12-09T23:21:06.437Z,73.30
2023-12-09T23:23:34.646Z,71.40
2023-12-09T23:26:02.916Z,69.10
2023-12-09T23:28:31.244Z,68.20
2023-12-09T23:30:59.428Z,66.90
2023-12-09T23:33:29.394Z,67.90
2023-12-09T23:35:57.577Z,66.40
2023-12-09T23:38:25.823Z,67.00
2023-12-09T23:40:54.017Z,67.40
2023-12-09T23:43:22.198Z,67.10
2023-12-09T23:45:50.538Z,67.40
2023-12-09T23:48:19.150Z,65.80
2023-12-09T23:50:48.951Z,65.30
2023-12-09T23:53:18.955Z,65.80
2023-12-09T23:55:47.526Z,66.00
2023-12-09T23:58:16.530Z,66.40
